Time;durP1;ratioP1;P1;durP2;ratioP2;P2;SDS_P1;SDS_P2;PMS_P1;PMS_P2;Temp;Humidity;BMP_temperature;BMP_pressure;BME280_temperature;BME280_humidity;BME280_pressure;Samples;Min_cycle;Max_cycle;Signal;HPM_P1;HPM_P2
2022/08/27 00:01:33;;;;;;;1.10;0.57;;;24.70;62.50;;;;;;4448325;32;20093;-73
2022/08/27 00:03:59;;;;;;;1.40;0.73;;;24.70;62.60;;;;;;4462207;32;20100;-73
2022/08/27 00:06:26;;;;;;;1.15;0.70;;;24.70;62.60;;;;;;4461994;32;20074;-74
2022/08/27 00:08:52;;;;;;;2.50;0.88;;;24.70;62.50;;;;;;4462454;32;20147;-74
2022/08/27 00:11:21;;;;;;;1.15;0.60;;;24.70;62.60;;;;;;4460886;32;20407;-75
2022/08/27 00:13:48;;;;;;;1.25;0.75;;;24.70;62.60;;;;;;4462066;32;20109;-74
2022/08/27 00:16:15;;;;;;;1.35;0.60;;;24.70;62.60;;;;;;4462285;32;20618;-74
2022/08/27 00:18:42;;;;;;;1.42;0.80;;;24.70;62.60;;;;;;4462068;32;20089;-74
2022/08/27 00:21:09;;;;;;;1.75;0.70;;;24.70;62.60;;;;;;4462095;32;20499;-74
2022/08/27 00:23:35;;;;;;;1.30;0.60;;;24.70;62.60;;;;;;4462329;32;20078;-73
2022/08/27 00:26:02;;;;;;;1.50;0.73;;;24.60;62.50;;;;;;4462146;32;20511;-73
2022/08/27 00:28:29;;;;;;;1.52;0.70;;;24.60;62.50;;;;;;4462056;32;20077;-74
2022/08/27 00:30:55;;;;;;;2.38;0.85;;;24.60;62.60;;;;;;4462063;32;20511;-73
2022/08/27 00:33:21;;;;;;;1.08;0.60;;;24.60;62.50;;;;;;4461737;32;20073;-73
2022/08/27 00:35:47;;;;;;;1.15;0.60;;;24.60;62.60;;;;;;4447883;32;20141;-73
2022/08/27 00:38:13;;;;;;;1.15;0.60;;;24.60;62.50;;;;;;4461920;32;20082;-73
2022/08/27 00:40:40;;;;;;;1.92;0.68;;;24.60;62.50;;;;;;4461408;32;20113;-73
2022/08/27 00:43:06;;;;;;;1.13;0.60;;;24.60;62.60;;;;;;4462131;32;20090;-73
2022/08/27 00:45:40;;;;;;;0.95;0.50;;;24.60;62.50;;;;;;4461466;32;20074;-74
2022/08/27 00:48:09;;;;;;;0.90;0.60;;;24.60;62.50;;;;;;4461873;32;20171;-73
2022/08/27 00:50:42;;;;;;;1.83;0.70;;;24.60;62.50;;;;;;4461633;32;20491;-73
2022/08/27 00:53:12;;;;;;;0.75;0.55;;;24.60;62.60;;;;;;4461931;32;20442;-73
2022/08/27 00:55:49;;;;;;;4.03;0.93;;;24.60;62.50;;;;;;4461205;32;20184;-74
2022/08/27 00:58:44;;;;;;;2.55;0.63;;;24.60;62.50;;;;;;4461589;32;20070;-76
2022/08/27 01:01:14;;;;;;;1.20;0.50;;;24.60;63.40;;;;;;4447526;32;20593;-74
2022/08/27 01:03:48;;;;;;;0.95;0.60;;;24.60;62.60;;;;;;4461527;32;20069;-74
2022/08/27 01:06:16;;;;;;;1.27;0.47;;;24.60;62.60;;;;;;4461641;32;20066;-74
2022/08/27 01:08:54;;;;;;;2.17;0.80;;;24.50;62.50;;;;;;4461495;32;20411;-73
2022/08/27 01:11:20;;;;;;;2.38;0.63;;;24.60;62.50;;;;;;4461753;32;20129;-74
2022/08/27 01:13:46;;;;;;;3.95;1.13;;;24.50;62.50;;;;;;4461048;32;20474;-74
2022/08/27 01:16:18;;;;;;;1.70;0.80;;;24.50;62.40;;;;;;4461218;32;20223;-73
2022/08/27 01:18:44;;;;;;;2.10;0.90;;;24.50;62.40;;;;;;4461598;32;20074;-73
2022/08/27 01:21:10;;;;;;;1.65;0.57;;;24.50;62.40;;;;;;4461446;32;20078;-74
2022/08/27 01:23:47;;;;;;;1.63;0.50;;;24.50;62.40;;;;;;4460657;32;20092;-73
2022/08/27 01:26:14;;;;;;;1.63;0.73;;;24.50;62.50;;;;;;4461578;32;20211;-73
2022/08/27 01:28:41;;;;;;;1.15;0.43;;;24.50;62.40;;;;;;4461450;32;20169;-74
2022/08/27 01:31:09;;;;;;;0.63;0.43;;;24.50;62.50;;;;;;4460819;32;20473;-74
2022/08/27 01:33:35;;;;;;;1.02;0.47;;;24.50;62.40;;;;;;4461064;32;20077;-74
2022/08/27 01:36:02;;;;;;;1.27;0.70;;;24.50;62.40;;;;;;4461096;32;20167;-73
2022/08/27 01:38:31;;;;;;;2.42;0.50;;;24.50;62.50;;;;;;4461007;32;20077;-74
2022/08/27 01:40:58;;;;;;;1.10;0.50;;;24.50;62.40;;;;;;4460751;32;20169;-74
2022/08/27 01:43:24;;;;;;;3.95;0.85;;;24.50;62.40;;;;;;4461122;32;20080;-73
2022/08/27 01:45:51;;;;;;;0.90;0.50;;;24.50;62.40;;;;;;4446921;32;20077;-74
2022/08/27 01:48:19;;;;;;;3.08;0.50;;;24.50;62.40;;;;;;4460606;32;20109;-73
2022/08/27 01:50:46;;;;;;;1.63;0.57;;;24.40;62.40;;;;;;4460829;32;20291;-74
2022/08/27 01:53:21;;;;;;;1.08;0.40;;;24.50;62.40;;;;;;4460822;32;20085;-74
2022/08/27 01:55:50;;;;;;;1.70;0.57;;;24.40;62.40;;;;;;4446854;32;20554;-74
2022/08/27 01:58:18;;;;;;;2.40;0.73;;;24.50;62.50;;;;;;4460782;32;20211;-73
2022/08/27 02:00:48;;;;;;;0.90;0.60;;;24.40;62.40;;;;;;4460460;32;20074;-74
2022/08/27 02:03:17;;;;;;;1.25;0.70;;;24.40;62.40;;;;;;4460893;32;20089;-74
2022/08/27 02:05:46;;;;;;;1.15;0.65;;;24.40;62.40;;;;;;4460719;32;20214;-73
2022/08/27 02:08:16;;;;;;;1.42;0.60;;;24.40;62.40;;;;;;4433673;32;20392;-74
2022/08/27 02:10:45;;;;;;;1.30;0.57;;;24.40;62.40;;;;;;4460977;32;20074;-73
2022/08/27 02:13:12;;;;;;;1.65;0.65;;;24.40;62.40;;;;;;4460616;32;20070;-74
2022/08/27 02:15:39;;;;;;;2.45;0.50;;;24.40;62.40;;;;;;4460481;32;20539;-74
2022/08/27 02:18:06;;;;;;;1.05;0.57;;;24.40;63.30;;;;;;4460762;32;20074;-73
2022/08/27 02:20:33;;;;;;;1.25;0.60;;;24.40;62.50;;;;;;4460576;32;20092;-74
2022/08/27 02:22:59;;;;;;;1.23;0.70;;;24.40;62.40;;;;;;4460591;32;20058;-73
2022/08/27 02:25:27;;;;;;;1.42;0.63;;;24.40;62.50;;;;;;4460545;32;20518;-74
2022/08/27 02:27:56;;;;;;;0.90;0.45;;;24.40;62.50;;;;;;4460502;32;20086;-74
2022/08/27 02:30:23;;;;;;;1.38;0.60;;;24.40;62.40;;;;;;4460478;32;20092;-73
2022/08/27 02:32:51;;;;;;;2.03;0.60;;;24.40;62.40;;;;;;4460180;32;20066;-74
2022/08/27 02:35:19;;;;;;;1.17;0.50;;;24.40;62.40;;;;;;4462748;32;20187;-74
2022/08/27 02:37:45;;;;;;;1.88;0.57;;;24.40;62.50;;;;;;4464275;32;20423;-73
2022/08/27 02:40:17;;;;;;;0.93;0.40;;;24.40;62.40;;;;;;4465426;32;20139;-73
2022/08/27 02:42:44;;;;;;;2.10;0.88;;;24.40;62.40;;;;;;4464314;32;20415;-73
2022/08/27 02:45:11;;;;;;;1.30;0.52;;;24.40;62.50;;;;;;4464914;32;20082;-73
2022/08/27 02:47:37;;;;;;;0.90;0.60;;;24.40;62.50;;;;;;4463990;32;20116;-76
2022/08/27 02:50:04;;;;;;;1.17;0.50;;;24.40;62.50;;;;;;4463804;32;20396;-74
2022/08/27 02:52:30;;;;;;;1.00;0.50;;;24.40;62.40;;;;;;4463238;32;20082;-73
2022/08/27 02:54:56;;;;;;;1.02;0.52;;;24.40;62.40;;;;;;4449295;32;20121;-73
2022/08/27 02:57:22;;;;;;;0.98;0.50;;;24.30;62.40;;;;;;4449172;32;20519;-73
2022/08/27 02:59:50;;;;;;;1.80;0.60;;;24.40;62.40;;;;;;4463831;32;20152;-73
2022/08/27 03:02:16;;;;;;;1.73;0.40;;;24.30;62.40;;;;;;4463543;32;20074;-73
2022/08/27 03:04:42;;;;;;;0.98;0.40;;;24.30;62.40;;;;;;4463320;32;20645;-73
2022/08/27 03:07:08;;;;;;;1.55;0.40;;;24.30;62.40;;;;;;4463330;32;20093;-73
2022/08/27 03:09:34;;;;;;;1.00;0.52;;;24.30;62.40;;;;;;4463304;32;20084;-74
2022/08/27 03:12:01;;;;;;;1.02;0.68;;;24.30;62.40;;;;;;4449184;32;20093;-73
2022/08/27 03:14:27;;;;;;;1.50;0.75;;;24.30;62.40;;;;;;4463084;32;20121;-74
2022/08/27 03:16:53;;;;;;;1.58;0.60;;;24.30;62.40;;;;;;4463158;32;20077;-73
2022/08/27 03:19:20;;;;;;;0.90;0.40;;;24.30;62.40;;;;;;4463096;32;20074;-73
2022/08/27 03:21:47;;;;;;;1.23;0.50;;;24.30;62.40;;;;;;4463337;32;20092;-73
2022/08/27 03:24:13;;;;;;;1.70;0.47;;;24.30;62.40;;;;;;4449239;32;20614;-74
2022/08/27 03:26:39;;;;;;;1.20;0.68;;;24.30;62.40;;;;;;4463031;32;20074;-73
2022/08/27 03:29:06;;;;;;;1.25;0.70;;;24.30;62.40;;;;;;4463162;32;20065;-73
2022/08/27 03:31:32;;;;;;;1.10;0.40;;;24.30;62.40;;;;;;4463228;32;20077;-73
2022/08/27 03:34:03;;;;;;;1.20;0.50;;;24.30;62.40;;;;;;4463166;32;20592;-73
2022/08/27 03:36:29;;;;;;;1.38;0.50;;;24.20;62.30;;;;;;4462838;32;20533;-73
2022/08/27 03:38:56;;;;;;;2.25;0.52;;;24.30;63.30;;;;;;4462831;32;20163;-73
2022/08/27 03:41:23;;;;;;;0.90;0.52;;;24.30;62.40;;;;;;4448949;32;20097;-73
2022/08/27 03:43:51;;;;;;;1.10;0.50;;;24.20;62.40;;;;;;4462666;32;20258;-73
2022/08/27 03:46:19;;;;;;;0.65;0.52;;;24.20;62.40;;;;;;4462225;32;20179;-73
2022/08/27 03:48:46;;;;;;;1.35;0.60;;;24.20;62.30;;;;;;4462441;32;20129;-73
2022/08/27 03:51:14;;;;;;;0.98;0.40;;;24.20;62.30;;;;;;4462391;32;20061;-74
2022/08/27 03:53:43;;;;;;;2.38;0.60;;;24.20;62.40;;;;;;4462858;32;20427;-74
2022/08/27 03:56:10;;;;;;;1.20;0.40;;;24.20;62.40;;;;;;4462745;32;20136;-74
2022/08/27 03:58:36;;;;;;;1.98;0.65;;;24.20;62.30;;;;;;4462543;32;20093;-73
2022/08/27 04:01:04;;;;;;;1.08;0.47;;;24.20;62.50;;;;;;4462734;32;20492;-73
2022/08/27 04:03:30;;;;;;;1.75;0.50;;;24.20;62.30;;;;;;4462420;32;20215;-73
2022/08/27 04:05:57;;;;;;;1.13;0.52;;;24.20;62.30;;;;;;4462675;32;20085;-74
2022/08/27 04:08:25;;;;;;;0.90;0.43;;;24.20;62.40;;;;;;4462155;32;20089;-73
2022/08/27 04:10:53;;;;;;;2.35;0.60;;;24.20;62.40;;;;;;4462327;32;20074;-74
2022/08/27 04:13:19;;;;;;;1.27;0.50;;;24.20;62.30;;;;;;4448027;32;20096;-73
2022/08/27 04:15:47;;;;;;;1.15;0.40;;;24.20;62.30;;;;;;4462120;32;20084;-74
2022/08/27 04:18:15;;;;;;;0.93;0.40;;;24.20;62.40;;;;;;4462801;32;20097;-73
2022/08/27 04:20:49;;;;;;;1.05;0.40;;;24.20;62.30;;;;;;4461967;32;20086;-73
2022/08/27 04:23:15;;;;;;;2.47;0.60;;;24.20;62.30;;;;;;4462115;32;20208;-74
2022/08/27 04:25:41;;;;;;;1.02;0.50;;;24.20;62.30;;;;;;4461925;32;20376;-73
2022/08/27 04:28:08;;;;;;;0.70;0.30;;;24.20;62.30;;;;;;4462368;32;20129;-74
2022/08/27 04:30:39;;;;;;;1.08;0.40;;;24.20;62.50;;;;;;4461834;32;20530;-73
2022/08/27 04:33:05;;;;;;;1.30;0.50;;;24.20;62.40;;;;;;4461894;32;20086;-73
2022/08/27 04:35:31;;;;;;;1.13;0.52;;;24.10;62.40;;;;;;4462162;32;20466;-73
2022/08/27 04:37:57;;;;;;;1.25;0.40;;;24.10;62.40;;;;;;4461941;32;20087;-73
2022/08/27 04:41:18;;;;;;;0.85;0.47;;;24.10;62.40;;;;;;4461712;32;20484;-73
2022/08/27 04:43:08;;;;;;;1.35;0.57;;;24.10;62.40;;;;;;4461555;32;20632;-74
2022/08/27 04:45:45;;;;;;;0.68;0.32;;;24.10;62.40;;;;;;4461505;32;20078;-73
2022/08/27 04:48:12;;;;;;;0.63;0.30;;;24.10;62.40;;;;;;4462102;32;20093;-73
2022/08/27 04:50:42;;;;;;;1.17;0.50;;;24.10;62.40;;;;;;4447548;32;20137;-73
2022/08/27 04:53:09;;;;;;;1.73;0.60;;;24.10;62.40;;;;;;4461780;32;20129;-74
2022/08/27 04:55:43;;;;;;;1.45;0.60;;;24.10;62.40;;;;;;4461689;32;20179;-73
2022/08/27 04:58:09;;;;;;;1.48;0.57;;;24.10;62.40;;;;;;4460884;32;20070;-73
2022/08/27 05:00:41;;;;;;;1.20;0.45;;;24.10;62.40;;;;;;4461896;32;20080;-73
2022/08/27 05:03:06;;;;;;;1.25;0.50;;;24.10;62.40;;;;;;4447665;32;20074;-73
2022/08/27 05:05:32;;;;;;;0.88;0.55;;;24.10;62.40;;;;;;4461530;32;20081;-73
2022/08/27 05:07:58;;;;;;;1.70;0.52;;;24.10;62.40;;;;;;4461467;32;20488;-73
2022/08/27 05:10:25;;;;;;;0.90;0.40;;;24.10;62.40;;;;;;4461211;32;20100;-73
2022/08/27 05:12:50;;;;;;;1.05;0.40;;;24.10;62.40;;;;;;4447429;32;20458;-73
2022/08/27 05:15:17;;;;;;;1.17;0.60;;;24.00;62.30;;;;;;4461306;32;20062;-73
2022/08/27 05:17:43;;;;;;;0.95;0.35;;;24.00;62.30;;;;;;4447361;32;20426;-73
2022/08/27 05:20:09;;;;;;;1.45;0.60;;;24.00;62.30;;;;;;4461264;32;20081;-74
2022/08/27 05:22:35;;;;;;;1.10;0.47;;;24.00;62.30;;;;;;4461542;32;20125;-73
2022/08/27 05:25:01;;;;;;;0.82;0.40;;;24.00;62.30;;;;;;4461274;32;20199;-73
2022/08/27 05:27:27;;;;;;;1.67;0.47;;;24.00;62.30;;;;;;4461431;32;20074;-73
2022/08/27 05:29:54;;;;;;;1.92;0.57;;;24.00;62.40;;;;;;4461226;32;20395;-74
2022/08/27 05:32:20;;;;;;;0.98;0.50;;;24.00;62.40;;;;;;4461152;32;20081;-74
2022/08/27 05:34:46;;;;;;;2.60;0.77;;;24.00;62.40;;;;;;4461120;32;20074;-73
2022/08/27 05:37:12;;;;;;;1.13;0.50;;;24.00;62.40;;;;;;4461020;32;20081;-73
2022/08/27 05:39:38;;;;;;;1.58;0.55;;;24.00;62.40;;;;;;4461060;32;20066;-73
2022/08/27 05:42:04;;;;;;;0.75;0.50;;;24.00;62.40;;;;;;4460898;32;20074;-73
2022/08/27 05:44:30;;;;;;;1.60;0.50;;;24.00;62.40;;;;;;4460959;32;20085;-73
2022/08/27 05:46:56;;;;;;;1.75;0.50;;;24.00;62.40;;;;;;4460686;32;20085;-73
2022/08/27 05:49:22;;;;;;;0.50;0.30;;;24.00;62.40;;;;;;4461173;32;20077;-74
2022/08/27 05:51:47;;;;;;;0.75;0.40;;;24.00;62.50;;;;;;4460612;32;20124;-73
2022/08/27 05:54:17;;;;;;;1.13;0.50;;;24.00;62.50;;;;;;4460791;32;20082;-73
2022/08/27 05:56:44;;;;;;;1.15;0.45;;;24.00;62.50;;;;;;4461138;32;20070;-73
2022/08/27 06:01:55;;;;;;;1.45;0.60;;;24.00;62.50;;;;;;4460810;32;20517;-73
2022/08/27 06:04:23;;;;;;;1.08;0.50;;;24.00;62.50;;;;;;4460425;32;20396;-73
2022/08/27 06:06:49;;;;;;;0.45;0.38;;;24.00;62.50;;;;;;4460703;32;20415;-74
2022/08/27 06:09:18;;;;;;;1.42;0.40;;;24.00;62.50;;;;;;4460923;32;20093;-73
2022/08/27 06:11:45;;;;;;;1.08;0.50;;;24.00;62.50;;;;;;4460492;32;20085;-73
2022/08/27 06:14:11;;;;;;;1.38;0.45;;;24.00;62.40;;;;;;4460672;32;20132;-73
2022/08/27 06:16:39;;;;;;;1.30;0.40;;;24.00;62.50;;;;;;4460535;32;20062;-73
2022/08/27 06:19:06;;;;;;;2.03;0.50;;;24.00;62.40;;;;;;4460540;32;20104;-73
2022/08/27 06:21:33;;;;;;;1.08;0.50;;;24.00;62.50;;;;;;4460285;32;20229;-74
2022/08/27 06:23:59;;;;;;;0.70;0.50;;;24.00;62.50;;;;;;4460543;32;20094;-73
2022/08/27 06:26:25;;;;;;;1.17;0.50;;;24.00;62.40;;;;;;4460759;32;20093;-73
2022/08/27 06:28:52;;;;;;;1.08;0.50;;;24.00;62.30;;;;;;4460505;32;20058;-73
2022/08/27 06:31:21;;;;;;;0.85;0.32;;;24.00;62.30;;;;;;4460604;32;20137;-73
2022/08/27 06:33:49;;;;;;;1.40;0.50;;;24.00;62.30;;;;;;4460375;32;20078;-73
2022/08/27 06:36:18;;;;;;;1.67;0.98;;;24.00;62.30;;;;;;4460159;32;20090;-74
2022/08/27 06:38:46;;;;;;;0.50;0.30;;;24.00;62.30;;;;;;4460459;32;20129;-73
2022/08/27 06:41:13;;;;;;;2.17;0.60;;;24.00;62.30;;;;;;4446373;32;20164;-72
2022/08/27 06:43:41;;;;;;;1.15;0.50;;;24.00;62.20;;;;;;4460695;32;20077;-74
2022/08/27 06:46:11;;;;;;;1.88;0.55;;;24.00;62.30;;;;;;4460068;32;20508;-74
2022/08/27 06:48:38;;;;;;;5.20;0.60;;;24.00;62.30;;;;;;4446413;32;20082;-74
2022/08/27 06:51:09;;;;;;;3.70;0.90;;;24.00;62.20;;;;;;4460278;32;20139;-73
2022/08/27 06:53:35;;;;;;;2.78;0.90;;;24.00;61.80;;;;;;4460313;32;20396;-74
2022/08/27 06:56:02;;;;;;;3.55;1.10;;;24.00;61.90;;;;;;4446378;32;20085;-74
2022/08/27 06:58:27;;;;;;;8.60;1.15;;;24.00;61.50;;;;;;4460359;32;20094;-74
2022/08/27 07:00:53;;;;;;;4.85;1.10;;;24.00;61.40;;;;;;4460332;32;20163;-75
2022/08/27 07:03:19;;;;;;;3.05;0.98;;;24.00;61.30;;;;;;4460244;32;20078;-74
2022/08/27 07:05:45;;;;;;;4.57;1.00;;;24.00;61.00;;;;;;4460242;32;20117;-74
2022/08/27 07:08:11;;;;;;;9.75;1.33;;;24.00;60.80;;;;;;4460155;32;20081;-74
2022/08/27 07:10:37;;;;;;;5.53;1.15;;;24.00;60.70;;;;;;4460396;32;20118;-74
2022/08/27 07:13:04;;;;;;;4.45;1.00;;;24.00;60.40;;;;;;4460168;32;20081;-74
2022/08/27 07:15:31;;;;;;;4.97;1.08;;;23.90;60.40;;;;;;4460052;32;20094;-73
2022/08/27 07:17:57;;;;;;;3.47;1.00;;;23.90;60.00;;;;;;4460052;32;20100;-73
2022/08/27 07:20:24;;;;;;;6.43;1.55;;;23.90;59.90;;;;;;4460908;32;20074;-74
2022/08/27 07:22:52;;;;;;;7.05;1.17;;;23.90;59.90;;;;;;4463031;32;20430;-74
2022/08/27 07:25:20;;;;;;;7.65;1.48;;;23.90;59.80;;;;;;4463006;32;20122;-74
2022/08/27 07:27:47;;;;;;;4.45;0.93;;;23.90;59.80;;;;;;4462711;32;20529;-74
2022/08/27 07:30:14;;;;;;;4.05;1.00;;;23.90;59.60;;;;;;4462935;32;20392;-74
2022/08/27 07:32:42;;;;;;;5.97;1.42;;;23.80;59.60;;;;;;4462872;32;20163;-74
2022/08/27 07:35:08;;;;;;;5.68;1.33;;;23.80;59.50;;;;;;4462928;32;20215;-74
2022/08/27 07:37:39;;;;;;;5.35;1.33;;;23.80;59.30;;;;;;4448955;32;20200;-74
2022/08/27 07:40:11;;;;;;;6.43;1.30;;;23.80;59.20;;;;;;4462584;32;20086;-74
2022/08/27 07:45:22;;;;;;;5.82;1.13;;;23.80;59.20;;;;;;4462978;32;20156;-74
2022/08/27 07:47:49;;;;;;;5.80;1.40;;;23.80;59.30;;;;;;4462738;32;20190;-74
2022/08/27 07:50:15;;;;;;;5.88;1.40;;;23.80;59.10;;;;;;4448713;32;20066;-74
2022/08/27 07:52:42;;;;;;;4.22;1.10;;;23.80;59.00;;;;;;4462664;32;20492;-74
2022/08/27 07:55:13;;;;;;;4.47;1.15;;;23.80;58.90;;;;;;4462506;32;20120;-74
2022/08/27 07:57:40;;;;;;;6.15;1.40;;;23.80;58.90;;;;;;4462445;32;20224;-74
2022/08/27 08:00:11;;;;;;;7.18;1.10;;;23.90;58.80;;;;;;4462476;32;20494;-74
2022/08/27 08:02:40;;;;;;;5.13;1.17;;;23.90;58.70;;;;;;4462277;32;20077;-74
2022/08/27 08:05:08;;;;;;;5.20;1.45;;;23.90;58.70;;;;;;4462341;32;20066;-74
2022/08/27 08:07:37;;;;;;;5.25;1.13;;;23.90;58.60;;;;;;4462686;32;20081;-74
2022/08/27 08:10:05;;;;;;;5.70;1.40;;;23.90;58.50;;;;;;4462341;32;20196;-74
2022/08/27 08:12:31;;;;;;;10.23;2.05;;;23.90;58.40;;;;;;4462176;32;20085;-74
2022/08/27 08:14:57;;;;;;;3.30;0.93;;;24.00;58.40;;;;;;4461949;32;20081;-73
2022/08/27 08:17:24;;;;;;;6.25;1.38;;;24.00;58.40;;;;;;4448247;32;20401;-73
2022/08/27 08:19:52;;;;;;;6.80;1.20;;;24.00;58.40;;;;;;4448335;32;20089;-73
2022/08/27 08:22:19;;;;;;;6.10;1.52;;;24.00;58.30;;;;;;4462187;32;20522;-73
2022/08/27 08:24:45;;;;;;;11.80;1.42;;;24.00;58.20;;;;;;4447781;32;20188;-73
2022/08/27 08:27:10;;;;;;;7.57;1.58;;;24.10;58.20;;;;;;4462057;32;20074;-74
2022/08/27 08:29:36;;;;;;;6.57;1.20;;;24.10;58.20;;;;;;4462015;32;20085;-73
2022/08/27 08:32:04;;;;;;;6.43;1.42;;;24.10;58.10;;;;;;4461368;32;20398;-74
2022/08/27 08:34:30;;;;;;;6.22;1.40;;;24.10;58.10;;;;;;4461964;32;20086;-74
2022/08/27 08:36:56;;;;;;;5.00;1.20;;;24.10;58.10;;;;;;4461872;32;20081;-74
2022/08/27 08:39:23;;;;;;;8.88;1.63;;;24.20;58.00;;;;;;4461860;32;20123;-74
2022/08/27 08:41:55;;;;;;;3.47;0.93;;;24.20;58.00;;;;;;4461684;32;20467;-74
2022/08/27 08:44:40;;;;;;;5.82;1.30;;;24.20;57.80;;;;;;4461581;32;20090;-74
2022/08/27 08:47:22;;;;;;;6.15;1.35;;;24.20;57.80;;;;;;4461441;32;20085;-74
2022/08/27 08:50:02;;;;;;;5.65;1.38;;;24.20;57.80;;;;;;4462238;32;20086;-74
2022/08/27 08:52:44;;;;;;;6.18;1.52;;;24.20;57.80;;;;;;4461817;32;20073;-73
2022/08/27 08:55:32;;;;;;;5.45;1.42;;;24.20;57.70;;;;;;4461880;32;20089;-73
2022/08/27 08:58:24;;;;;;;4.88;0.95;;;24.20;57.60;;;;;;4461963;32;20212;-75
2022/08/27 09:00:55;;;;;;;6.20;1.33;;;24.20;57.70;;;;;;4461945;32;20491;-73
2022/08/27 09:03:21;;;;;;;3.40;1.10;;;24.20;57.80;;;;;;4461425;32;20129;-73
2022/08/27 09:06:00;;;;;;;6.72;1.30;;;24.20;57.70;;;;;;4461581;32;20495;-73
2022/08/27 09:08:35;;;;;;;3.95;1.05;;;24.20;57.60;;;;;;4461883;32;20092;-74
2022/08/27 09:11:13;;;;;;;6.93;1.30;;;24.20;57.50;;;;;;4461180;32;20073;-73
2022/08/27 09:14:23;;;;;;;6.28;1.20;;;24.20;57.40;;;;;;4461152;32;20566;-74
2022/08/27 09:16:50;;;;;;;6.75;1.50;;;24.20;57.40;;;;;;4453378;32;20077;-74
2022/08/27 09:19:15;;;;;;;5.05;0.93;;;24.20;57.40;;;;;;4461566;32;20070;-72
2022/08/27 09:21:55;;;;;;;5.88;1.30;;;24.20;57.40;;;;;;4461230;32;20557;-74
2022/08/27 09:24:45;;;;;;;7.38;1.50;;;24.20;57.40;;;;;;4461335;32;20070;-73
2022/08/27 09:27:13;;;;;;;4.03;1.35;;;24.20;57.40;;;;;;4461493;32;20505;-73
2022/08/27 09:29:54;;;;;;;6.93;1.58;;;24.20;57.40;;;;;;4461151;32;20128;-73
2022/08/27 09:32:26;;;;;;;4.88;1.00;;;24.20;57.40;;;;;;4461098;32;20093;-74
2022/08/27 09:34:57;;;;;;;5.82;1.02;;;24.30;57.40;;;;;;4461051;32;20073;-74
2022/08/27 09:37:30;;;;;;;5.25;1.27;;;24.30;57.50;;;;;;4460785;32;20077;-76
2022/08/27 09:40:20;;;;;;;5.50;1.20;;;24.30;57.50;;;;;;4461197;32;20091;-75
2022/08/27 09:42:51;;;;;;;4.93;1.00;;;24.40;57.50;;;;;;4460221;32;20088;-75
2022/08/27 09:45:28;;;;;;;10.98;1.48;;;24.40;57.50;;;;;;4460689;32;20061;-74
2022/08/27 09:48:06;;;;;;;3.97;1.23;;;24.40;57.50;;;;;;4460910;32;20415;-75
2022/08/27 09:50:38;;;;;;;5.18;1.23;;;24.50;57.60;;;;;;4461259;32;20074;-75
2022/08/27 09:53:15;;;;;;;6.00;1.05;;;24.50;57.60;;;;;;4461319;32;20062;-74
2022/08/27 09:55:47;;;;;;;7.05;1.20;;;24.50;57.60;;;;;;4460587;32;20154;-74
2022/08/27 09:58:19;;;;;;;4.32;0.95;;;24.50;57.60;;;;;;4460930;32;20102;-75
2022/08/27 10:00:46;;;;;;;5.88;1.13;;;24.50;57.40;;;;;;4461039;32;20155;-75
2022/08/27 10:03:12;;;;;;;4.57;1.10;;;24.60;57.20;;;;;;4460950;32;20096;-75
2022/08/27 10:05:42;;;;;;;2.75;0.80;;;24.60;57.00;;;;;;4460454;32;20081;-75
2022/08/27 10:08:19;;;;;;;4.60;1.23;;;24.60;56.80;;;;;;4460600;32;20162;-75
2022/08/27 10:10:58;;;;;;;3.47;1.08;;;24.70;56.60;;;;;;4461253;32;20466;-75
2022/08/27 10:13:36;;;;;;;3.63;0.88;;;24.70;56.40;;;;;;4460506;32;20084;-74
2022/08/27 10:16:39;;;;;;;6.07;1.10;;;24.70;56.30;;;;;;4460601;32;20377;-74
2022/08/27 10:19:20;;;;;;;4.65;1.13;;;24.70;56.60;;;;;;4460314;32;20207;-74
2022/08/27 10:21:51;;;;;;;4.53;1.02;;;24.70;56.90;;;;;;4446748;32;20069;-74
2022/08/27 10:24:44;;;;;;;5.80;1.33;;;24.70;56.70;;;;;;4460505;32;20078;-74
2022/08/27 10:27:22;;;;;;;3.15;0.98;;;24.70;56.70;;;;;;4460248;32;20078;-75
2022/08/27 10:29:54;;;;;;;4.95;1.10;;;24.70;56.90;;;;;;4460498;32;20123;-75
2022/08/27 10:32:33;;;;;;;4.60;1.05;;;24.70;57.00;;;;;;4461007;32;20082;-74
2022/08/27 10:35:20;;;;;;;6.05;1.00;;;24.70;57.00;;;;;;4460395;32;20176;-75
2022/08/27 10:38:04;;;;;;;3.35;0.90;;;24.70;57.00;;;;;;4460291;32;20090;-73
2022/08/27 10:40:45;;;;;;;5.85;1.10;;;24.70;57.00;;;;;;4460127;32;20086;-72
2022/08/27 10:43:19;;;;;;;3.60;0.93;;;24.70;56.90;;;;;;4460695;32;20087;-73
2022/08/27 10:45:54;;;;;;;6.20;1.05;;;24.70;56.80;;;;;;4460538;32;20062;-73
2022/08/27 10:48:23;;;;;;;4.25;1.20;;;24.70;56.80;;;;;;4460393;32;20102;-73
2022/08/27 10:51:21;;;;;;;3.28;1.20;;;24.70;56.70;;;;;;4460227;32;20322;-73
2022/08/27 10:54:03;;;;;;;4.53;1.10;;;24.70;56.70;;;;;;4448369;32;20085;-74
2022/08/27 10:56:40;;;;;;;5.47;1.23;;;24.70;56.60;;;;;;4462503;32;20117;-71
2022/08/27 10:59:21;;;;;;;4.68;1.17;;;24.70;56.60;;;;;;4463451;32;20074;-71
2022/08/27 11:02:21;;;;;;;4.90;1.00;;;24.70;56.60;;;;;;4463445;32;20077;-72
2022/08/27 11:04:52;;;;;;;5.15;1.02;;;24.70;56.70;;;;;;4463581;32;20499;-72
2022/08/27 11:07:27;;;;;;;2.83;0.73;;;24.70;56.80;;;;;;4463072;32;20100;-71
2022/08/27 11:10:00;;;;;;;6.03;1.00;;;24.70;56.80;;;;;;4463269;32;20142;-71
2022/08/27 11:12:37;;;;;;;3.90;0.80;;;24.70;56.80;;;;;;4449368;32;20070;-72
2022/08/27 11:15:15;;;;;;;5.80;1.17;;;24.70;56.70;;;;;;4462995;32;20139;-72
2022/08/27 11:17:50;;;;;;;4.28;0.90;;;24.70;56.60;;;;;;4463517;32;20073;-72
2022/08/27 11:20:37;;;;;;;6.35;1.10;;;24.70;56.40;;;;;;4463550;32;20211;-72
2022/08/27 11:23:12;;;;;;;5.22;0.90;;;24.70;56.20;;;;;;4462892;32;20531;-71
2022/08/27 11:25:49;;;;;;;5.20;1.38;;;24.70;57.00;;;;;;4463069;32;20231;-72
2022/08/27 11:28:18;;;;;;;7.57;1.23;;;24.70;56.60;;;;;;4463019;32;20113;-72
2022/08/27 11:30:47;;;;;;;5.10;1.00;;;24.70;57.20;;;;;;4462677;32;20077;-71
2022/08/27 11:33:39;;;;;;;3.25;1.08;;;24.70;57.00;;;;;;4462894;32;20074;-71
2022/08/27 11:36:42;;;;;;;5.22;1.00;;;24.70;57.20;;;;;;4449252;32;20089;-71
2022/08/27 11:39:30;;;;;;;4.80;1.10;;;24.70;57.00;;;;;;4462727;32;20554;-73
2022/08/27 11:42:22;;;;;;;4.43;1.25;;;24.70;56.80;;;;;;4462643;32;20165;-71
2022/08/27 11:44:56;;;;;;;5.07;0.80;;;24.80;57.30;;;;;;4462402;32;20081;-71
2022/08/27 11:47:25;;;;;;;3.97;1.10;;;24.80;57.30;;;;;;4462795;32;20085;-71
2022/08/27 11:49:52;;;;;;;6.53;1.23;;;24.80;56.70;;;;;;4462632;32;20215;-72
2022/08/27 11:52:24;;;;;;;5.32;1.30;;;24.80;56.70;;;;;;4462719;32;20066;-72
2022/08/27 11:54:57;;;;;;;5.25;0.93;;;24.80;56.90;;;;;;4462808;32;20100;-74
2022/08/27 11:57:32;;;;;;;4.63;1.20;;;24.80;56.70;;;;;;4462546;32;20078;-71
2022/08/27 12:00:09;;;;;;;3.72;0.80;;;24.80;56.60;;;;;;4462541;32;20070;-71
2022/08/27 12:02:35;;;;;;;3.42;0.80;;;24.80;56.40;;;;;;4462598;32;20641;-72
2022/08/27 12:05:22;;;;;;;4.88;1.10;;;24.80;56.20;;;;;;4462748;32;20062;-72
2022/08/27 12:07:52;;;;;;;3.97;0.70;;;24.80;55.80;;;;;;4462296;32;20078;-71
2022/08/27 12:10:30;;;;;;;4.47;1.20;;;24.80;56.00;;;;;;4462452;32;20082;-72
2022/08/27 12:12:59;;;;;;;3.63;0.70;;;24.80;56.40;;;;;;4462610;32;20195;-71
2022/08/27 12:15:34;;;;;;;6.85;1.27;;;24.90;56.00;;;;;;4462156;32;20101;-74
2022/08/27 12:17:59;;;;;;;4.47;0.75;;;24.90;56.30;;;;;;4462227;32;20093;-71
2022/08/27 12:21:16;;;;;;;3.03;0.70;;;24.90;56.20;;;;;;4461918;32;20096;-70
2022/08/27 12:23:58;;;;;;;3.20;0.80;;;24.90;56.30;;;;;;4422922;32;20074;-70
2022/08/27 12:26:24;;;;;;;2.83;1.13;;;24.90;56.30;;;;;;4462613;32;20131;-70
2022/08/27 12:29:24;;;;;;;3.80;0.90;;;24.90;56.30;;;;;;4462416;32;20411;-71
2022/08/27 12:32:13;;;;;;;4.18;1.10;;;24.90;56.40;;;;;;4462412;32;20084;-70
2022/08/27 12:34:58;;;;;;;5.07;0.95;;;24.90;56.40;;;;;;4450933;32;20357;-71
2022/08/27 12:37:28;;;;;;;7.03;1.20;;;24.90;56.40;;;;;;4462292;32;20159;-74
2022/08/27 12:39:58;;;;;;;6.95;1.20;;;24.90;56.30;;;;;;4461727;32;20103;-71
2022/08/27 12:42:24;;;;;;;2.92;0.75;;;24.90;56.20;;;;;;4462253;32;20082;-70
2022/08/27 12:44:55;;;;;;;2.22;0.82;;;24.90;56.10;;;;;;4447950;32;20073;-70
2022/08/27 12:47:22;;;;;;;2.85;0.73;;;24.80;55.80;;;;;;4461945;32;20507;-71
2022/08/27 12:49:58;;;;;;;7.53;1.00;;;24.80;55.70;;;;;;4461992;32;20159;-71
2022/08/27 12:53:08;;;;;;;4.38;1.25;;;24.80;55.70;;;;;;4462110;32;20084;-71
2022/08/27 12:55:54;;;;;;;4.15;1.00;;;24.90;55.40;;;;;;4427039;32;20215;-71
2022/08/27 12:58:39;;;;;;;4.10;0.90;;;24.80;54.90;;;;;;4429748;32;20070;-71
2022/08/27 13:01:33;;;;;;;5.60;1.05;;;24.90;54.80;;;;;;4461865;32;20089;-70
2022/08/27 13:04:00;;;;;;;6.53;1.10;;;24.90;55.90;;;;;;4461639;32;20179;-71
2022/08/27 13:06:29;;;;;;;2.30;0.57;;;24.90;54.80;;;;;;4447681;32;20088;-70
2022/08/27 13:08:58;;;;;;;4.25;0.95;;;24.90;54.80;;;;;;4461512;32;20062;-71
2022/08/27 13:11:33;;;;;;;5.43;1.00;;;24.90;55.00;;;;;;4461556;32;20183;-70